createdAt,value
2022-10-10T00:01:26.308Z,12.57
2022-10-10T00:04:29.558Z,12.63
2022-10-10T00:07:32.793Z,11.53
2022-10-10T00:10:37.809Z,12.03
2022-10-10T00:13:41.876Z,12.53
2022-10-10T00:16:45.025Z,12.03
2022-10-10T00:19:48.264Z,11.80
2022-10-10T00:22:51.654Z,11.20
2022-10-10T00:25:56.557Z,11.10
2022-10-10T00:28:59.804Z,10.70
2022-10-10T00:32:03.023Z,11.13
2022-10-10T00:35:07.273Z,10.87
2022-10-10T00:38:10.685Z,10.93
2022-10-10T00:41:15.306Z,9.83
2022-10-10T00:44:18.724Z,9.83
2022-10-10T00:47:21.898Z,11.43
2022-10-10T00:50:26.243Z,10.40
2022-10-10T00:53:34.089Z,10.30
2022-10-10T00:56:43.325Z,10.73
2022-10-10T00:59:47.841Z,11.23
2022-10-10T01:02:51.541Z,10.07
2022-10-10T01:05:55.127Z,10.60
2022-10-10T01:08:58.910Z,10.93
2022-10-10T01:12:18.955Z,10.93
2022-10-10T01:15:26.678Z,11.57
2022-10-10T01:18:39.499Z,11.43
2022-10-10T01:21:52.512Z,13.23
2022-10-10T01:25:07.982Z,12.83
2022-10-10T01:28:23.493Z,12.37
2022-10-10T01:31:27.983Z,12.90
2022-10-10T01:34:38.151Z,13.57
2022-10-10T01:37:49.851Z,13.50
2022-10-10T01:40:57.191Z,13.80
2022-10-10T01:44:01.891Z,14.80
2022-10-10T01:47:05.219Z,14.30
2022-10-10T01:50:13.381Z,13.93
2022-10-10T01:53:24.513Z,14.07
2022-10-10T01:56:35.360Z,14.23
2022-10-10T01:59:50.068Z,14.40
2022-10-10T02:02:59.654Z,14.43
2022-10-10T02:06:08.964Z,13.77
2022-10-10T02:09:18.188Z,13.13
2022-10-10T02:12:24.643Z,12.97
2022-10-10T02:15:35.669Z,13.03
2022-10-10T02:18:40.456Z,13.27
2022-10-10T02:21:44.145Z,12.13
2022-10-10T02:24:47.392Z,12.60
2022-10-10T02:28:00.830Z,13.40
2022-10-10T02:31:08.640Z,12.83
2022-10-10T02:34:14.784Z,12.70
2022-10-10T02:37:19.468Z,13.63
2022-10-10T02:40:26.653Z,13.20
2022-10-10T02:43:29.967Z,13.10
2022-10-10T02:46:34.864Z,13.87
2022-10-10T02:49:38.291Z,12.53
2022-10-10T02:52:41.605Z,12.63
2022-10-10T02:55:45.101Z,12.80
2022-10-10T02:58:48.314Z,13.13
2022-10-10T03:01:52.871Z,13.37
2022-10-10T03:04:56.052Z,12.80
2022-10-10T03:07:59.221Z,13.20
2022-10-10T03:11:03.222Z,13.17
2022-10-10T03:14:06.456Z,13.50
2022-10-10T03:17:11.126Z,12.97
2022-10-10T03:20:14.381Z,12.17
2022-10-10T03:23:17.584Z,13.10
2022-10-10T03:26:20.844Z,13.20
2022-10-10T03:29:24.118Z,13.43
2022-10-10T03:32:28.795Z,12.50
2022-10-10T03:35:32.058Z,12.60
2022-10-10T03:38:35.342Z,12.67
2022-10-10T03:41:38.482Z,12.60
2022-10-10T03:44:41.681Z,12.33
2022-10-10T03:47:46.278Z,12.37
2022-10-10T03:50:49.466Z,12.10
2022-10-10T03:53:52.670Z,13.80
2022-10-10T03:56:55.882Z,12.40
2022-10-10T03:59:59.028Z,11.40
2022-10-10T04:03:06.375Z,12.37
2022-10-10T04:06:09.565Z,11.23
2022-10-10T04:09:12.783Z,12.20
2022-10-10T04:12:15.998Z,11.10
2022-10-10T04:15:19.229Z,11.70
2022-10-10T04:18:24.439Z,12.40
2022-10-10T04:21:27.667Z,12.57
2022-10-10T04:24:31.021Z,11.13
2022-10-10T04:27:34.282Z,12.10
2022-10-10T04:30:37.502Z,11.77
2022-10-10T04:33:42.132Z,12.27
2022-10-10T04:36:45.327Z,13.30
2022-10-10T04:39:48.551Z,12.80
2022-10-10T04:42:52.045Z,14.30
2022-10-10T04:45:57.685Z,15.07
2022-10-10T04:49:02.276Z,17.93
2022-10-10T04:52:05.490Z,16.87
2022-10-10T04:55:09.202Z,17.90
2022-10-10T04:58:12.579Z,16.33
2022-10-10T05:01:16.026Z,16.27
2022-10-10T05:04:20.782Z,15.00
2022-10-10T05:07:24.170Z,13.60
2022-10-10T05:10:27.783Z,13.70
2022-10-10T05:13:30.993Z,13.13
2022-10-10T05:16:34.584Z,13.17
2022-10-10T05:19:39.199Z,13.00
2022-10-10T05:22:42.411Z,13.23
2022-10-10T05:25:46.177Z,13.10
2022-10-10T05:28:49.372Z,13.73
2022-10-10T05:31:52.597Z,14.50
2022-10-10T05:34:57.177Z,13.77
2022-10-10T05:38:00.491Z,13.47
2022-10-10T05:41:04.363Z,15.07
2022-10-10T05:44:07.630Z,13.70
2022-10-10T05:47:10.985Z,13.57
2022-10-10T05:50:29.124Z,13.80
2022-10-10T05:53:32.387Z,13.77
2022-10-10T05:56:35.564Z,14.53
2022-10-10T05:59:38.751Z,13.63
2022-10-10T06:02:42.094Z,13.10
2022-10-10T06:05:49.238Z,13.67
2022-10-10T06:08:52.539Z,13.80
2022-10-10T06:11:55.731Z,12.40
2022-10-10T06:14:58.922Z,12.73
2022-10-10T06:18:02.236Z,9.93
2022-10-10T06:21:09.189Z,11.57
2022-10-10T06:24:12.497Z,11.97
2022-10-10T06:27:15.736Z,12.57
2022-10-10T06:30:18.974Z,12.57
2022-10-10T06:33:22.256Z,13.30
2022-10-10T06:36:26.839Z,13.23
2022-10-10T06:39:30.157Z,14.00
2022-10-10T06:42:34.385Z,14.07
2022-10-10T06:45:37.704Z,15.20
2022-10-10T06:48:41.036Z,11.83
2022-10-10T06:51:45.746Z,12.97
2022-10-10T06:54:48.960Z,14.23
2022-10-10T06:57:52.221Z,17.27
2022-10-10T07:00:57.005Z,15.00
2022-10-10T07:04:00.225Z,17.33
2022-10-10T07:07:04.902Z,17.90
2022-10-10T07:10:09.639Z,15.07
2022-10-10T07:13:12.936Z,14.90
2022-10-10T07:16:16.135Z,14.32
2022-10-10T07:19:21.634Z,12.85
2022-10-10T07:22:26.814Z,12.40
2022-10-10T07:25:30.489Z,12.98
2022-10-10T07:28:34.505Z,12.00
2022-10-10T07:31:37.892Z,12.20
2022-10-10T07:34:47.015Z,12.50
2022-10-10T07:37:55.495Z,11.60
2022-10-10T07:40:58.716Z,10.90
2022-10-10T07:44:01.957Z,10.27
2022-10-10T07:47:05.240Z,10.75
2022-10-10T07:50:09.224Z,11.05
2022-10-10T07:53:13.986Z,9.63
2022-10-10T07:56:17.171Z,9.02
2022-10-10T07:59:20.355Z,9.57
2022-10-10T08:02:23.559Z,9.05
2022-10-10T08:05:26.767Z,10.10
2022-10-10T08:08:34.144Z,10.02
2022-10-10T08:11:37.694Z,9.93
2022-10-10T08:14:41.115Z,10.23
2022-10-10T08:17:44.308Z,10.77
2022-10-10T08:20:47.570Z,11.15
2022-10-10T08:23:52.274Z,10.55
2022-10-10T08:26:55.427Z,10.13
2022-10-10T08:29:58.654Z,10.75
2022-10-10T08:33:02.668Z,10.23
2022-10-10T08:36:08.192Z,10.43
2022-10-10T08:39:12.814Z,10.27
2022-10-10T08:42:18.875Z,9.65
2022-10-10T08:45:26.054Z,10.93
2022-10-10T08:48:31.263Z,9.30
2022-10-10T08:51:35.504Z,9.82
2022-10-10T08:54:42.431Z,9.30
2022-10-10T08:57:51.680Z,8.38
2022-10-10T09:01:03.684Z,7.63
2022-10-10T09:04:08.896Z,7.85
2022-10-10T09:07:25.871Z,7.30
2022-10-10T09:10:38.903Z,8.13
2022-10-10T09:13:51.811Z,7.22
2022-10-10T09:17:01.602Z,7.30
2022-10-10T09:20:17.061Z,6.72
2022-10-10T09:23:24.803Z,6.82
2022-10-10T09:26:32.401Z,6.90
2022-10-10T09:29:44.128Z,6.70
2022-10-10T09:32:52.754Z,7.03
2022-10-10T09:35:59.328Z,6.97
2022-10-10T09:39:06.538Z,6.32
2022-10-10T09:42:15.036Z,6.13
2022-10-10T09:45:21.939Z,6.00
2022-10-10T09:48:29.240Z,6.40
2022-10-10T09:51:33.442Z,6.25
2022-10-10T09:54:36.726Z,6.70
2022-10-10T09:57:43.936Z,5.72
2022-10-10T10:00:47.373Z,6.35
2022-10-10T10:04:27.177Z,6.57
2022-10-10T10:07:33.459Z,5.28
2022-10-10T10:10:37.238Z,6.07
2022-10-10T10:13:42.721Z,5.97
2022-10-10T10:16:45.978Z,6.22
2022-10-10T10:19:49.730Z,6.43
2022-10-10T10:26:02.899Z,6.38
2022-10-10T10:29:31.449Z,6.43
2022-10-10T10:32:46.883Z,6.43
2022-10-10T10:36:00.212Z,6.75
2022-10-10T10:39:19.499Z,6.00
2022-10-10T10:42:37.050Z,7.70
2022-10-10T10:45:53.727Z,6.72
2022-10-10T10:49:03.168Z,5.93
2022-10-10T10:52:29.211Z,6.95
2022-10-10T10:55:40.705Z,6.72
2022-10-10T10:59:35.665Z,6.93
2022-10-10T11:02:57.383Z,6.82
2022-10-10T11:06:23.568Z,7.40
2022-10-10T11:09:49.199Z,7.68
2022-10-10T11:13:04.625Z,7.55
2022-10-10T11:16:36.366Z,7.72
2022-10-10T11:19:44.385Z,7.18
2022-10-10T11:22:53.054Z,7.80
2022-10-10T11:26:01.589Z,8.63
2022-10-10T11:29:10.999Z,8.25
2022-10-10T11:35:36.494Z,9.25
2022-10-10T11:38:45.136Z,7.57
2022-10-10T11:41:53.380Z,7.43
2022-10-10T11:45:01.092Z,6.82
2022-10-10T11:48:15.800Z,7.25
2022-10-10T11:51:27.643Z,7.78
2022-10-10T11:54:41.846Z,7.50
2022-10-10T11:57:51.280Z,7.03
2022-10-10T12:00:58.556Z,7.35
2022-10-10T12:04:01.842Z,7.03
2022-10-10T12:07:12.844Z,7.60
2022-10-10T12:10:23.485Z,7.40
2022-10-10T12:13:32.576Z,7.53
2022-10-10T12:16:37.958Z,7.00
2022-10-10T12:19:41.232Z,6.47
2022-10-10T12:23:09.863Z,6.82
2022-10-10T12:26:17.816Z,6.50
2022-10-10T12:29:42.217Z,6.88
2022-10-10T12:32:46.594Z,6.30
2022-10-10T12:35:49.825Z,6.53
2022-10-10T12:39:22.677Z,6.80
2022-10-10T12:42:32.433Z,7.13
2022-10-10T12:46:16.093Z,6.60
2022-10-10T12:49:22.415Z,6.18
2022-10-10T12:52:28.415Z,6.70
2022-10-10T12:55:33.891Z,6.47
2022-10-10T12:58:41.510Z,6.68
2022-10-10T13:01:51.031Z,6.47
2022-10-10T13:04:57.277Z,6.82
2022-10-10T13:08:02.744Z,7.00
2022-10-10T13:11:08.974Z,7.13
2022-10-10T13:14:15.044Z,6.80
2022-10-10T13:17:29.672Z,7.43
2022-10-10T13:20:37.524Z,7.82
2022-10-10T13:27:08.143Z,7.20
2022-10-10T13:30:20.246Z,7.43
2022-10-10T13:33:29.885Z,6.90
2022-10-10T13:36:33.697Z,6.45
2022-10-10T13:39:39.336Z,7.65
2022-10-10T13:42:42.882Z,6.68
2022-10-10T13:45:49.619Z,7.07
2022-10-10T13:48:52.918Z,7.32
2022-10-10T13:52:05.204Z,7.07
2022-10-10T13:55:25.166Z,7.57
2022-10-10T13:58:30.160Z,6.82
2022-10-10T14:01:37.991Z,6.63
2022-10-10T14:04:46.525Z,6.68
2022-10-10T14:07:51.395Z,6.80
2022-10-10T14:11:00.385Z,7.40
2022-10-10T14:14:09.230Z,7.70
2022-10-10T14:17:15.016Z,7.30
2022-10-10T14:20:18.229Z,7.45
2022-10-10T14:23:21.509Z,7.03
2022-10-10T14:26:24.735Z,6.88
2022-10-10T14:29:27.948Z,6.80
2022-10-10T14:32:33.006Z,6.65
2022-10-10T14:35:36.536Z,6.90
2022-10-10T14:38:39.890Z,7.07
2022-10-10T14:41:43.702Z,6.75
2022-10-10T14:44:47.244Z,7.13
2022-10-10T14:47:52.282Z,7.18
2022-10-10T14:50:55.568Z,6.78
2022-10-10T14:54:10.057Z,7.88
2022-10-10T14:57:15.770Z,8.32
2022-10-10T15:00:21.516Z,9.18
2022-10-10T15:03:26.322Z,10.93
2022-10-10T15:06:29.609Z,11.70
2022-10-10T15:09:41.571Z,12.55
2022-10-10T15:12:48.269Z,10.55
2022-10-10T15:15:51.607Z,10.70
2022-10-10T15:18:56.281Z,10.02
2022-10-10T15:21:59.426Z,9.50
2022-10-10T15:25:02.670Z,9.82
2022-10-10T15:28:06.216Z,9.05
2022-10-10T15:31:09.515Z,9.20
2022-10-10T15:34:14.836Z,8.82
2022-10-10T15:37:18.124Z,8.30
2022-10-10T15:40:23.303Z,7.85
2022-10-10T15:43:27.173Z,8.63
2022-10-10T15:46:31.134Z,9.95
2022-10-10T15:49:35.748Z,9.60
2022-10-10T15:52:39.778Z,9.32
2022-10-10T15:55:43.856Z,8.70
2022-10-10T15:58:46.821Z,9.32
2022-10-10T16:01:50.084Z,9.40
2022-10-10T16:04:54.711Z,9.43
2022-10-10T16:07:57.868Z,10.45
2022-10-10T16:11:06.047Z,9.48
2022-10-10T16:14:09.261Z,9.02
2022-10-10T16:17:12.541Z,10.15
2022-10-10T16:20:17.232Z,10.02
2022-10-10T16:23:20.519Z,12.43
2022-10-10T16:26:26.753Z,12.35
2022-10-10T16:29:30.031Z,12.73
2022-10-10T16:32:38.011Z,13.20
2022-10-10T16:35:45.640Z,12.55
2022-10-10T16:38:49.643Z,12.13
2022-10-10T16:41:52.871Z,12.00
2022-10-10T16:44:56.059Z,13.40
2022-10-10T16:47:59.220Z,11.02
2022-10-10T16:51:05.584Z,12.93
2022-10-10T16:54:08.951Z,11.70
2022-10-10T16:57:14.497Z,11.47
2022-10-10T17:00:18.049Z,17.58
2022-10-10T17:03:21.681Z,11.60
2022-10-10T17:06:28.117Z,12.07
2022-10-10T17:09:34.566Z,12.25
2022-10-10T17:12:37.803Z,12.33
2022-10-10T17:15:43.949Z,12.17
2022-10-10T17:18:47.204Z,12.63
2022-10-10T17:21:51.848Z,12.97
2022-10-10T17:24:55.132Z,11.68
2022-10-10T17:27:58.282Z,10.57
2022-10-10T17:31:01.892Z,11.32
2022-10-10T17:34:05.403Z,11.60
2022-10-10T17:37:10.012Z,11.88
2022-10-10T17:40:13.658Z,12.30
2022-10-10T17:43:16.875Z,10.70
2022-10-10T17:46:37.511Z,11.10
2022-10-10T17:49:46.344Z,10.70
2022-10-10T17:52:50.977Z,10.07
2022-10-10T17:55:54.368Z,10.80
2022-10-10T17:58:59.622Z,11.07
2022-10-10T18:02:02.836Z,10.73
2022-10-10T18:05:06.721Z,11.43
2022-10-10T18:08:11.378Z,10.43
2022-10-10T18:11:16.899Z,9.23
2022-10-10T18:14:22.394Z,9.77
2022-10-10T18:17:25.618Z,10.70
2022-10-10T18:20:28.860Z,10.50
2022-10-10T18:23:33.903Z,9.90
2022-10-10T18:26:37.247Z,10.80
2022-10-10T18:29:40.638Z,11.30
2022-10-10T18:32:43.867Z,11.27
2022-10-10T18:35:47.103Z,11.40
2022-10-10T18:38:51.782Z,13.03
2022-10-10T18:41:54.986Z,12.13
2022-10-10T18:44:58.274Z,12.50
2022-10-10T18:48:01.534Z,12.90
2022-10-10T18:51:06.741Z,13.50
2022-10-10T18:54:14.813Z,13.63
2022-10-10T18:57:18.281Z,13.73
2022-10-10T19:00:25.139Z,14.50
2022-10-10T19:03:28.821Z,14.57
2022-10-10T19:06:32.108Z,12.83
2022-10-10T19:09:36.713Z,13.30
2022-10-10T19:12:43.927Z,13.30
2022-10-10T19:15:51.695Z,12.93
2022-10-10T19:18:58.169Z,14.10
2022-10-10T19:22:01.895Z,14.17
2022-10-10T19:25:07.225Z,13.43
2022-10-10T19:28:10.580Z,13.83
2022-10-10T19:31:15.503Z,13.07
2022-10-10T19:34:18.765Z,12.57
2022-10-10T19:37:21.969Z,11.17
2022-10-10T19:40:26.598Z,12.10
2022-10-10T19:43:30.168Z,10.40
2022-10-10T19:46:37.110Z,12.27
2022-10-10T19:49:41.061Z,10.80
2022-10-10T19:52:44.347Z,10.67
2022-10-10T19:55:58.533Z,10.40
2022-10-10T19:59:04.495Z,10.43
2022-10-10T20:02:08.057Z,9.80
2022-10-10T20:05:11.831Z,10.20
2022-10-10T20:08:15.574Z,9.70
2022-10-10T20:11:20.780Z,11.67
2022-10-10T20:14:24.002Z,11.13
2022-10-10T20:17:27.889Z,11.63
2022-10-10T20:20:31.106Z,11.73
2022-10-10T20:23:34.306Z,11.47
2022-10-10T20:26:38.946Z,10.73
2022-10-10T20:29:42.164Z,11.50
2022-10-10T20:32:45.356Z,11.63
2022-10-10T20:35:52.401Z,11.23
2022-10-10T20:39:00.703Z,11.80
2022-10-10T20:42:05.299Z,10.80
2022-10-10T20:45:11.454Z,11.63
2022-10-10T20:48:14.806Z,11.90
2022-10-10T20:51:18.025Z,11.80
2022-10-10T20:54:23.572Z,11.10
2022-10-10T20:57:28.090Z,11.83
2022-10-10T21:00:31.360Z,11.17
2022-10-10T21:03:34.511Z,9.50
2022-10-10T21:06:38.528Z,10.40
2022-10-10T21:09:41.769Z,9.93
2022-10-10T21:12:46.415Z,9.57
2022-10-10T21:15:49.650Z,10.60
2022-10-10T21:18:57.884Z,10.53
2022-10-10T21:22:01.577Z,10.53
2022-10-10T21:25:05.231Z,10.50
2022-10-10T21:28:10.188Z,10.70
2022-10-10T21:31:15.734Z,10.67
2022-10-10T21:34:19.163Z,10.60
2022-10-10T21:37:22.388Z,9.77
2022-10-10T21:40:25.547Z,9.77
2022-10-10T21:43:30.202Z,10.20
2022-10-10T21:46:37.249Z,10.30
2022-10-10T21:49:40.482Z,9.90
2022-10-10T21:52:43.786Z,9.93
2022-10-10T21:55:47.044Z,10.30
2022-10-10T21:58:51.674Z,9.27
2022-10-10T22:01:54.909Z,9.87
2022-10-10T22:04:58.907Z,10.50
2022-10-10T22:08:17.423Z,10.47
2022-10-10T22:11:23.508Z,9.43
2022-10-10T22:14:28.185Z,9.60
2022-10-10T22:17:31.397Z,9.00
2022-10-10T22:20:34.580Z,9.73
2022-10-10T22:23:37.995Z,9.53
2022-10-10T22:26:41.755Z,9.30
2022-10-10T22:29:46.350Z,9.70
2022-10-10T22:32:49.565Z,9.50
2022-10-10T22:35:52.797Z,9.37
2022-10-10T22:38:56.074Z,10.03
2022-10-10T22:41:59.275Z,9.57
2022-10-10T22:45:03.921Z,9.27
2022-10-10T22:48:07.644Z,9.30
2022-10-10T22:51:15.189Z,9.17
2022-10-10T22:54:18.643Z,9.07
2022-10-10T22:57:21.866Z,8.73
2022-10-10T23:00:26.623Z,9.00
2022-10-10T23:03:29.893Z,8.63
2022-10-10T23:06:33.042Z,8.63
2022-10-10T23:09:36.242Z,8.73
2022-10-10T23:12:39.442Z,8.73
2022-10-10T23:15:44.052Z,8.17
2022-10-10T23:18:47.326Z,8.63
2022-10-10T23:21:50.430Z,8.20
2022-10-10T23:24:53.732Z,8.60
2022-10-10T23:27:57.004Z,8.30
2022-10-10T23:31:05.102Z,8.07
2022-10-10T23:34:08.351Z,7.90
2022-10-10T23:37:11.592Z,7.87
2022-10-10T23:40:14.846Z,7.90
2022-10-10T23:43:18.151Z,7.93
2022-10-10T23:46:22.888Z,7.97
2022-10-10T23:49:26.134Z,8.53
2022-10-10T23:52:29.351Z,7.37
2022-10-10T23:55:33.989Z,7.70
2022-10-10T23:58:37.657Z,7.43
